createdAt,value
2023-03-03T04:52:57.749Z,18.70
2023-03-03T04:55:26.608Z,19.80
2023-03-03T04:57:55.542Z,18.90
2023-03-03T05:00:24.508Z,19.63
2023-03-03T05:02:53.750Z,18.38
2023-03-03T05:05:22.664Z,18.70
2023-03-03T05:07:51.540Z,19.70
2023-03-03T05:10:21.215Z,18.65
2023-03-03T05:12:50.408Z,18.70
2023-03-03T05:15:20.518Z,19.27
2023-03-03T05:17:49.578Z,18.23
2023-03-03T05:20:19.422Z,16.52
2023-03-03T05:22:48.356Z,18.42
2023-03-03T05:25:20.384Z,17.98
2023-03-03T05:27:49.394Z,17.70
2023-03-03T05:30:18.409Z,18.33
2023-03-03T05:32:47.942Z,17.65
2023-03-03T05:35:16.859Z,15.57
2023-03-03T05:37:50.149Z,17.58
2023-03-03T05:40:19.195Z,16.10
2023-03-03T05:42:50.545Z,16.92
2023-03-03T05:45:22.230Z,18.17
2023-03-03T05:47:51.972Z,19.13
2023-03-03T05:50:22.901Z,18.98
2023-03-03T05:52:56.021Z,17.60
2023-03-03T05:55:24.831Z,19.15
2023-03-03T05:57:53.757Z,19.77
2023-03-03T06:00:23.309Z,19.27
2023-03-03T06:02:52.224Z,17.98
2023-03-03T06:05:21.481Z,16.67
2023-03-03T06:07:50.515Z,18.73
2023-03-03T06:10:19.662Z,15.93
2023-03-03T06:12:48.546Z,16.23
2023-03-03T06:15:17.609Z,17.88
2023-03-03T06:17:46.538Z,17.50
2023-03-03T06:20:15.429Z,17.80
2023-03-03T06:22:44.352Z,18.33
2023-03-03T06:25:13.438Z,16.02
2023-03-03T06:27:42.292Z,20.50
2023-03-03T06:30:11.988Z,22.70
2023-03-03T06:32:41.321Z,33.10
2023-03-03T06:35:13.229Z,18.25
2023-03-03T06:37:42.305Z,15.70
2023-03-03T06:40:11.882Z,15.75
2023-03-03T06:42:43.147Z,16.05
2023-03-03T06:45:12.368Z,16.75
2023-03-03T06:47:41.256Z,16.70
2023-03-03T06:50:11.892Z,15.40
2023-03-03T06:52:41.037Z,14.98
2023-03-03T06:55:19.360Z,18.73
2023-03-03T06:57:48.371Z,15.88
2023-03-03T07:00:19.493Z,14.63
2023-03-03T07:02:53.030Z,16.65
2023-03-03T07:07:50.420Z,25.23
2023-03-03T07:10:31.340Z,24.90
2023-03-03T07:13:15.979Z,19.88
2023-03-03T07:15:44.905Z,17.05
2023-03-03T07:18:35.424Z,15.45
2023-03-03T07:21:17.849Z,15.05
2023-03-03T07:23:49.620Z,15.32
2023-03-03T07:26:23.794Z,16.48
2023-03-03T07:29:01.965Z,17.42
2023-03-03T07:31:38.558Z,23.05
2023-03-03T07:34:21.106Z,18.73
2023-03-03T07:36:52.630Z,20.27
2023-03-03T07:39:48.729Z,16.55
2023-03-03T07:42:29.564Z,15.75
2023-03-03T07:45:03.502Z,14.00
2023-03-03T07:47:38.248Z,14.65
2023-03-03T07:50:22.676Z,14.55
2023-03-03T07:53:03.010Z,14.00
2023-03-03T07:55:43.794Z,14.60
2023-03-03T07:58:18.050Z,13.07
2023-03-03T08:01:23.766Z,14.13
2023-03-03T08:03:53.808Z,99.72
2023-03-03T08:06:37.699Z,100.18
2023-03-03T08:11:54.886Z,102.65
2023-03-03T08:14:37.045Z,104.65
2023-03-03T08:17:25.171Z,102.50
2023-03-03T08:19:56.261Z,102.65
2023-03-03T08:22:37.292Z,102.43
2023-03-03T08:25:06.631Z,103.25
2023-03-03T08:27:35.480Z,103.15
2023-03-03T08:30:04.515Z,103.63
2023-03-03T08:32:33.450Z,103.47
2023-03-03T08:35:02.385Z,103.63
2023-03-03T08:37:31.258Z,103.43
2023-03-03T08:40:00.184Z,103.93
2023-03-03T08:42:31.227Z,103.68
2023-03-03T08:45:00.157Z,103.00
2023-03-03T08:47:44.286Z,101.57
2023-03-03T08:50:16.414Z,103.45
2023-03-03T08:52:45.694Z,101.50
2023-03-03T08:55:15.340Z,104.55
2023-03-03T08:57:44.606Z,102.20
2023-03-03T09:00:16.999Z,102.68
2023-03-03T09:02:46.028Z,101.85
2023-03-03T09:05:15.468Z,102.10
2023-03-03T09:07:47.796Z,101.03
2023-03-03T09:10:20.604Z,101.40
2023-03-03T09:12:50.030Z,101.03
2023-03-03T09:15:30.281Z,100.72
2023-03-03T09:18:11.653Z,101.85
2023-03-03T09:20:43.579Z,100.30
2023-03-03T09:23:35.863Z,102.18
2023-03-03T09:26:28.013Z,104.38
2023-03-03T09:29:01.177Z,103.38
2023-03-03T09:31:56.098Z,104.07
2023-03-03T09:34:32.635Z,103.10
2023-03-03T09:37:01.556Z,103.47
2023-03-03T09:39:32.800Z,103.20
2023-03-03T09:42:15.689Z,104.75
2023-03-03T09:45:06.144Z,104.10
2023-03-03T09:47:53.307Z,103.25
2023-03-03T09:50:53.039Z,105.13
2023-03-03T09:53:29.272Z,102.72
2023-03-03T09:56:10.230Z,104.95
2023-03-03T09:58:59.128Z,104.43
2023-03-03T10:02:04.423Z,103.88
2023-03-03T10:04:44.296Z,104.53
2023-03-03T10:07:25.419Z,104.38
2023-03-03T10:10:15.572Z,102.40
2023-03-03T10:13:15.093Z,102.20
2023-03-03T10:16:05.772Z,104.00
2023-03-03T10:18:57.579Z,103.45
2023-03-03T10:22:12.472Z,105.72
2023-03-03T10:27:46.112Z,102.60
2023-03-03T10:30:48.511Z,91.00
2023-03-03T10:33:29.896Z,100.40
2023-03-03T10:36:24.929Z,105.43
2023-03-03T10:39:00.968Z,102.82
2023-03-03T10:41:56.909Z,105.03
2023-03-03T10:45:06.433Z,105.25
2023-03-03T10:47:59.072Z,104.60
2023-03-03T10:50:46.592Z,104.03
2023-03-03T10:53:43.570Z,107.13
